Arbor Hill, Iowa
Current Conditions -  °F | °C
As of 1:35 AM on Saturday 29 Nov 2014 (Local Time) from KPRO Reporting Station
Clear Clear  
Wind Chill: -5°   Ceiling: Unl
Heat Index: -2°   Visibility: 7mi
Dew Point: -2°   Wind: 5mph
Humidity: 98%   Direction: 130°SE
Pressure: 29.58"   Gusts: NA
Location:  41.5397°N, 94.299°W
Report Text: KPRO 290735Z AUTO 13004KT 7SM CLR M02/M02 A2958 RMK AO2 T10171020
Loading
Personal Weather Stations






























Interactive Weather Map New forecast layout! Learn more

10-Day Weather Forecast

Advertisements
Track Severe Weather on mobile